sensor_id;sensor_type;location;lat;lon;timestamp;pressure;altitude;pressure_sealevel;temperature;humidity
50859;BME280;36826;47.514;19.056;2023-01-30T00:01:25;100709.00;;;5.28;50.49
50859;BME280;36826;47.514;19.056;2023-01-30T00:03:50;100710.72;;;5.59;49.89
50859;BME280;36826;47.514;19.056;2023-01-30T00:06:16;100712.50;;;5.44;49.98
50859;BME280;36826;47.514;19.056;2023-01-30T00:08:41;100704.91;;;5.52;50.44
50859;BME280;36826;47.514;19.056;2023-01-30T00:11:08;100708.22;;;5.42;50.62
50859;BME280;36826;47.514;19.056;2023-01-30T00:13:34;100702.44;;;5.03;50.98
50859;BME280;36826;47.514;19.056;2023-01-30T00:15:59;100706.91;;;4.70;51.76
50859;BME280;36826;47.514;19.056;2023-01-30T00:18:24;100695.00;;;4.94;51.54
50859;BME280;36826;47.514;19.056;2023-01-30T00:20:56;100702.09;;;5.25;51.05
50859;BME280;36826;47.514;19.056;2023-01-30T00:23:22;100702.69;;;5.45;50.96
50859;BME280;36826;47.514;19.056;2023-01-30T00:25:47;100701.75;;;5.46;51.29
50859;BME280;36826;47.514;19.056;2023-01-30T00:28:13;100690.63;;;5.39;50.88
50859;BME280;36826;47.514;19.056;2023-01-30T00:30:38;100693.47;;;5.36;51.06
50859;BME280;36826;47.514;19.056;2023-01-30T00:33:03;100693.84;;;5.30;51.42
50859;BME280;36826;47.514;19.056;2023-01-30T00:35:29;100696.00;;;5.53;50.97
50859;BME280;36826;47.514;19.056;2023-01-30T00:37:54;100684.81;;;5.02;51.19
50859;BME280;36826;47.514;19.056;2023-01-30T00:40:20;100682.03;;;5.19;51.05
50859;BME280;36826;47.514;19.056;2023-01-30T00:42:45;100689.06;;;5.20;51.41
50859;BME280;36826;47.514;19.056;2023-01-30T00:45:29;100692.94;;;5.45;50.92
50859;BME280;36826;47.514;19.056;2023-01-30T00:48:13;100690.00;;;5.50;50.96
50859;BME280;36826;47.514;19.056;2023-01-30T00:50:38;100684.31;;;5.42;50.57
50859;BME280;36826;47.514;19.056;2023-01-30T00:53:13;100677.84;;;5.15;51.40
50859;BME280;36826;47.514;19.056;2023-01-30T00:55:39;100680.94;;;5.38;51.33
50859;BME280;36826;47.514;19.056;2023-01-30T00:58:05;100674.34;;;5.45;50.63
50859;BME280;36826;47.514;19.056;2023-01-30T01:00:30;100667.09;;;5.33;50.93
50859;BME280;36826;47.514;19.056;2023-01-30T01:02:56;100671.88;;;5.42;50.94
50859;BME280;36826;47.514;19.056;2023-01-30T01:05:21;100663.91;;;5.42;50.81
50859;BME280;36826;47.514;19.056;2023-01-30T01:07:47;100667.13;;;5.17;50.91
50859;BME280;36826;47.514;19.056;2023-01-30T01:10:12;100665.00;;;5.38;50.72
50859;BME280;36826;47.514;19.056;2023-01-30T01:12:43;100661.75;;;5.18;50.82
50859;BME280;36826;47.514;19.056;2023-01-30T01:15:09;100658.81;;;5.23;50.96
50859;BME280;36826;47.514;19.056;2023-01-30T01:17:34;100653.31;;;5.26;50.78
50859;BME280;36826;47.514;19.056;2023-01-30T01:20:00;100649.66;;;5.43;50.97
50859;BME280;36826;47.514;19.056;2023-01-30T01:22:25;100654.00;;;5.30;50.62
50859;BME280;36826;47.514;19.056;2023-01-30T01:24:50;100653.19;;;5.58;50.09
50859;BME280;36826;47.514;19.056;2023-01-30T01:27:15;100654.69;;;4.87;51.16
50859;BME280;36826;47.514;19.056;2023-01-30T01:29:41;100652.66;;;5.22;51.21
50859;BME280;36826;47.514;19.056;2023-01-30T01:32:07;100649.78;;;5.26;50.50
50859;BME280;36826;47.514;19.056;2023-01-30T01:34:32;100643.63;;;4.95;51.02
50859;BME280;36826;47.514;19.056;2023-01-30T01:36:57;100639.03;;;5.43;50.90
50859;BME280;36826;47.514;19.056;2023-01-30T01:39:23;100636.16;;;5.32;50.91
50859;BME280;36826;47.514;19.056;2023-01-30T01:41:48;100636.66;;;5.08;51.06
50859;BME280;36826;47.514;19.056;2023-01-30T01:44:13;100634.91;;;4.93;51.69
50859;BME280;36826;47.514;19.056;2023-01-30T01:46:47;100634.97;;;4.91;52.02
50859;BME280;36826;47.514;19.056;2023-01-30T01:49:16;100623.22;;;5.26;53.34
50859;BME280;36826;47.514;19.056;2023-01-30T01:51:46;100628.09;;;5.03;53.56
50859;BME280;36826;47.514;19.056;2023-01-30T01:54:15;100618.09;;;5.08;56.07
50859;BME280;36826;47.514;19.056;2023-01-30T01:56:42;100613.69;;;4.76;55.23
50859;BME280;36826;47.514;19.056;2023-01-30T01:59:12;100612.75;;;4.61;56.86
50859;BME280;36826;47.514;19.056;2023-01-30T02:01:38;100607.47;;;4.29;55.04
50859;BME280;36826;47.514;19.056;2023-01-30T02:04:04;100598.38;;;4.66;57.59
50859;BME280;36826;47.514;19.056;2023-01-30T02:06:33;100589.31;;;4.70;56.53
50859;BME280;36826;47.514;19.056;2023-01-30T02:09:01;100588.78;;;4.47;55.83
50859;BME280;36826;47.514;19.056;2023-01-30T02:11:47;100583.00;;;4.56;57.03
50859;BME280;36826;47.514;19.056;2023-01-30T02:14:15;100581.19;;;4.41;57.17
50859;BME280;36826;47.514;19.056;2023-01-30T02:16:42;100576.97;;;4.53;56.44
50859;BME280;36826;47.514;19.056;2023-01-30T02:22:03;100573.63;;;4.65;56.19
50859;BME280;36826;47.514;19.056;2023-01-30T02:32:35;100563.47;;;4.57;59.39
50859;BME280;36826;47.514;19.056;2023-01-30T02:37:35;100556.75;;;4.66;58.57
50859;BME280;36826;47.514;19.056;2023-01-30T02:43:34;100546.34;;;4.47;58.65
50859;BME280;36826;47.514;19.056;2023-01-30T02:46:42;100538.09;;;4.37;57.86
50859;BME280;36826;47.514;19.056;2023-01-30T02:48:48;100531.19;;;4.49;59.16
50859;BME280;36826;47.514;19.056;2023-01-30T02:51:18;100531.47;;;4.44;59.52
50859;BME280;36826;47.514;19.056;2023-01-30T02:53:45;100523.41;;;4.46;60.07
50859;BME280;36826;47.514;19.056;2023-01-30T02:56:11;100525.72;;;4.52;56.70
50859;BME280;36826;47.514;19.056;2023-01-30T02:58:37;100524.44;;;4.43;57.88
50859;BME280;36826;47.514;19.056;2023-01-30T03:01:10;100520.25;;;4.55;58.31
50859;BME280;36826;47.514;19.056;2023-01-30T03:08:47;100511.06;;;4.30;58.66
50859;BME280;36826;47.514;19.056;2023-01-30T03:11:16;100515.78;;;3.93;59.66
50859;BME280;36826;47.514;19.056;2023-01-30T03:13:55;100513.88;;;3.95;60.30
50859;BME280;36826;47.514;19.056;2023-01-30T03:16:24;100506.53;;;4.01;59.92
50859;BME280;36826;47.514;19.056;2023-01-30T03:18:50;100507.31;;;4.03;58.50
50859;BME280;36826;47.514;19.056;2023-01-30T03:21:16;100506.38;;;4.04;59.92
50859;BME280;36826;47.514;19.056;2023-01-30T03:23:43;100503.63;;;4.05;59.09
50859;BME280;36826;47.514;19.056;2023-01-30T03:26:09;100501.38;;;4.13;60.83
50859;BME280;36826;47.514;19.056;2023-01-30T03:28:37;100497.81;;;3.98;58.18
50859;BME280;36826;47.514;19.056;2023-01-30T03:31:02;100507.72;;;3.95;58.97
50859;BME280;36826;47.514;19.056;2023-01-30T03:33:27;100502.06;;;3.85;57.92
50859;BME280;36826;47.514;19.056;2023-01-30T03:35:53;100499.44;;;3.85;58.66
50859;BME280;36826;47.514;19.056;2023-01-30T03:38:18;100487.97;;;4.01;60.41
50859;BME280;36826;47.514;19.056;2023-01-30T03:40:44;100484.03;;;4.24;60.56
50859;BME280;36826;47.514;19.056;2023-01-30T03:43:09;100488.91;;;3.99;59.27
50859;BME280;36826;47.514;19.056;2023-01-30T03:45:35;100485.41;;;4.15;60.39
50859;BME280;36826;47.514;19.056;2023-01-30T03:48:00;100478.31;;;3.99;60.63
50859;BME280;36826;47.514;19.056;2023-01-30T03:50:25;100487.72;;;4.05;60.48
50859;BME280;36826;47.514;19.056;2023-01-30T03:52:51;100489.16;;;4.11;61.95
50859;BME280;36826;47.514;19.056;2023-01-30T03:55:16;100489.53;;;4.05;61.55
50859;BME280;36826;47.514;19.056;2023-01-30T03:57:41;100481.38;;;4.08;62.02
50859;BME280;36826;47.514;19.056;2023-01-30T04:00:07;100485.31;;;3.68;61.49
50859;BME280;36826;47.514;19.056;2023-01-30T04:02:33;100484.13;;;3.90;61.29
50859;BME280;36826;47.514;19.056;2023-01-30T04:04:58;100474.44;;;3.57;62.55
50859;BME280;36826;47.514;19.056;2023-01-30T04:07:23;100473.59;;;3.73;61.14
50859;BME280;36826;47.514;19.056;2023-01-30T04:09:49;100468.56;;;3.84;60.95
50859;BME280;36826;47.514;19.056;2023-01-30T04:12:14;100473.09;;;3.98;62.68
50859;BME280;36826;47.514;19.056;2023-01-30T04:14:39;100459.84;;;3.82;59.66
50859;BME280;36826;47.514;19.056;2023-01-30T04:17:05;100460.28;;;3.90;61.89
50859;BME280;36826;47.514;19.056;2023-01-30T04:19:30;100464.72;;;4.06;62.94
50859;BME280;36826;47.514;19.056;2023-01-30T04:21:55;100454.13;;;3.90;62.64
50859;BME280;36826;47.514;19.056;2023-01-30T04:24:21;100452.91;;;3.95;61.16
50859;BME280;36826;47.514;19.056;2023-01-30T04:26:46;100456.75;;;3.90;60.68
50859;BME280;36826;47.514;19.056;2023-01-30T04:29:11;100450.09;;;3.98;63.29
50859;BME280;36826;47.514;19.056;2023-01-30T04:31:36;100449.06;;;3.85;60.54
50859;BME280;36826;47.514;19.056;2023-01-30T04:34:02;100453.44;;;3.86;61.38
50859;BME280;36826;47.514;19.056;2023-01-30T04:36:27;100444.28;;;3.92;60.11
50859;BME280;36826;47.514;19.056;2023-01-30T04:38:53;100442.47;;;4.08;61.24
50859;BME280;36826;47.514;19.056;2023-01-30T04:41:18;100432.41;;;3.99;61.73
50859;BME280;36826;47.514;19.056;2023-01-30T04:43:43;100430.78;;;3.80;60.47
50859;BME280;36826;47.514;19.056;2023-01-30T04:46:09;100427.19;;;3.81;62.32
50859;BME280;36826;47.514;19.056;2023-01-30T04:48:34;100424.13;;;3.73;63.89
50859;BME280;36826;47.514;19.056;2023-01-30T04:50:59;100425.41;;;3.50;63.20
50859;BME280;36826;47.514;19.056;2023-01-30T04:53:25;100418.56;;;3.46;62.95
50859;BME280;36826;47.514;19.056;2023-01-30T04:55:50;100426.69;;;3.75;63.11
50859;BME280;36826;47.514;19.056;2023-01-30T04:58:16;100420.78;;;3.69;63.42
50859;BME280;36826;47.514;19.056;2023-01-30T05:00:43;100416.25;;;3.72;65.13
50859;BME280;36826;47.514;19.056;2023-01-30T05:03:09;100414.38;;;3.42;62.55
50859;BME280;36826;47.514;19.056;2023-01-30T05:05:34;100419.16;;;3.67;61.63
50859;BME280;36826;47.514;19.056;2023-01-30T05:07:59;100417.34;;;3.35;64.11
50859;BME280;36826;47.514;19.056;2023-01-30T05:10:25;100415.38;;;3.39;63.72
50859;BME280;36826;47.514;19.056;2023-01-30T05:12:50;100401.56;;;3.34;63.17
50859;BME280;36826;47.514;19.056;2023-01-30T05:15:16;100411.38;;;3.32;64.41
50859;BME280;36826;47.514;19.056;2023-01-30T05:17:41;100408.56;;;3.35;63.97
50859;BME280;36826;47.514;19.056;2023-01-30T05:20:07;100412.75;;;3.39;63.50
50859;BME280;36826;47.514;19.056;2023-01-30T05:22:33;100413.41;;;3.43;64.38
50859;BME280;36826;47.514;19.056;2023-01-30T05:24:58;100417.78;;;3.44;64.97
50859;BME280;36826;47.514;19.056;2023-01-30T05:27:23;100411.47;;;3.46;64.01
50859;BME280;36826;47.514;19.056;2023-01-30T05:29:49;100414.22;;;3.77;64.31
50859;BME280;36826;47.514;19.056;2023-01-30T05:32:14;100412.81;;;3.69;63.88
50859;BME280;36826;47.514;19.056;2023-01-30T05:34:40;100399.91;;;3.95;63.30
50859;BME280;36826;47.514;19.056;2023-01-30T05:37:05;100404.81;;;3.71;63.50
50859;BME280;36826;47.514;19.056;2023-01-30T05:39:31;100399.19;;;4.08;62.95
50859;BME280;36826;47.514;19.056;2023-01-30T05:41:56;100401.28;;;4.03;64.55
50859;BME280;36826;47.514;19.056;2023-01-30T05:44:21;100385.75;;;4.11;62.77
50859;BME280;36826;47.514;19.056;2023-01-30T05:46:47;100388.03;;;4.03;62.04
50859;BME280;36826;47.514;19.056;2023-01-30T05:49:12;100382.66;;;4.19;62.91
50859;BME280;36826;47.514;19.056;2023-01-30T05:51:37;100386.94;;;4.21;64.31
50859;BME280;36826;47.514;19.056;2023-01-30T05:54:03;100391.66;;;4.16;64.71
50859;BME280;36826;47.514;19.056;2023-01-30T05:56:29;100397.88;;;3.68;63.65
50859;BME280;36826;47.514;19.056;2023-01-30T05:58:57;100401.34;;;4.17;62.66
50859;BME280;36826;47.514;19.056;2023-01-30T06:01:23;100394.97;;;4.20;61.70
50859;BME280;36826;47.514;19.056;2023-01-30T06:03:48;100400.28;;;4.20;62.16
50859;BME280;36826;47.514;19.056;2023-01-30T06:06:14;100395.31;;;4.29;63.34
50859;BME280;36826;47.514;19.056;2023-01-30T06:08:40;100400.22;;;4.36;62.46
50859;BME280;36826;47.514;19.056;2023-01-30T06:11:12;100387.19;;;4.47;62.24
50859;BME280;36826;47.514;19.056;2023-01-30T06:13:38;100391.09;;;4.56;63.43
50859;BME280;36826;47.514;19.056;2023-01-30T06:16:04;100395.31;;;4.29;64.15
50859;BME280;36826;47.514;19.056;2023-01-30T06:18:29;100390.22;;;4.41;64.23
50859;BME280;36826;47.514;19.056;2023-01-30T06:20:55;100390.59;;;4.49;61.93
50859;BME280;36826;47.514;19.056;2023-01-30T06:23:20;100390.81;;;4.60;61.22
50859;BME280;36826;47.514;19.056;2023-01-30T06:25:48;100392.72;;;4.73;62.80
50859;BME280;36826;47.514;19.056;2023-01-30T06:28:14;100395.97;;;4.78;61.17
50859;BME280;36826;47.514;19.056;2023-01-30T06:30:39;100400.81;;;5.00;61.71
50859;BME280;36826;47.514;19.056;2023-01-30T06:33:05;100404.88;;;5.06;60.49
50859;BME280;36826;47.514;19.056;2023-01-30T06:35:30;100401.66;;;5.30;60.84
50859;BME280;36826;47.514;19.056;2023-01-30T06:37:56;100387.44;;;5.16;60.70
50859;BME280;36826;47.514;19.056;2023-01-30T06:40:21;100386.69;;;5.56;60.09
50859;BME280;36826;47.514;19.056;2023-01-30T06:42:46;100374.81;;;6.17;58.78
50859;BME280;36826;47.514;19.056;2023-01-30T06:45:13;100368.00;;;8.50;55.46
50859;BME280;36826;47.514;19.056;2023-01-30T06:47:48;100363.19;;;9.24;51.68
50859;BME280;36826;47.514;19.056;2023-01-30T06:50:14;100366.38;;;11.62;49.89
50859;BME280;36826;47.514;19.056;2023-01-30T06:52:42;100362.19;;;13.05;46.31
50859;BME280;36826;47.514;19.056;2023-01-30T06:55:09;100359.69;;;13.77;45.80
50859;BME280;36826;47.514;19.056;2023-01-30T06:57:36;100357.47;;;14.09;43.57
50859;BME280;36826;47.514;19.056;2023-01-30T07:00:03;100361.03;;;16.17;42.25
50859;BME280;36826;47.514;19.056;2023-01-30T07:02:29;100366.38;;;17.00;40.36
50859;BME280;36826;47.514;19.056;2023-01-30T07:04:58;100354.94;;;16.56;39.36
50859;BME280;36826;47.514;19.056;2023-01-30T07:07:23;100358.88;;;17.18;39.77
50859;BME280;36826;47.514;19.056;2023-01-30T07:09:49;100356.91;;;16.87;38.22
50859;BME280;36826;47.514;19.056;2023-01-30T07:12:14;100353.09;;;16.40;40.37
50859;BME280;36826;47.514;19.056;2023-01-30T07:14:39;100359.31;;;16.82;39.27
50859;BME280;36826;47.514;19.056;2023-01-30T07:17:05;100366.56;;;14.26;41.54
50859;BME280;36826;47.514;19.056;2023-01-30T07:19:30;100358.22;;;12.62;44.01
50859;BME280;36826;47.514;19.056;2023-01-30T07:21:55;100360.91;;;11.83;45.98
50859;BME280;36826;47.514;19.056;2023-01-30T07:24:21;100360.78;;;10.62;48.00
50859;BME280;36826;47.514;19.056;2023-01-30T07:26:46;100365.53;;;10.37;48.05
50859;BME280;36826;47.514;19.056;2023-01-30T07:29:12;100363.00;;;10.03;48.38
50859;BME280;36826;47.514;19.056;2023-01-30T07:31:37;100354.47;;;8.99;49.43
50859;BME280;36826;47.514;19.056;2023-01-30T07:34:02;100357.28;;;8.39;50.16
50859;BME280;36826;47.514;19.056;2023-01-30T07:36:28;100367.44;;;8.81;50.42
50859;BME280;36826;47.514;19.056;2023-01-30T07:38:53;100361.84;;;8.25;51.29
50859;BME280;36826;47.514;19.056;2023-01-30T07:41:18;100361.44;;;8.07;51.75
50859;BME280;36826;47.514;19.056;2023-01-30T07:43:44;100355.78;;;8.82;49.52
50859;BME280;36826;47.514;19.056;2023-01-30T07:46:09;100360.41;;;8.80;50.27
50859;BME280;36826;47.514;19.056;2023-01-30T07:48:34;100351.34;;;8.35;50.41
50859;BME280;36826;47.514;19.056;2023-01-30T07:51:00;100346.09;;;8.34;50.57
50859;BME280;36826;47.514;19.056;2023-01-30T07:53:25;100340.41;;;7.91;51.25
50859;BME280;36826;47.514;19.056;2023-01-30T07:55:50;100349.34;;;8.73;51.08
50859;BME280;36826;47.514;19.056;2023-01-30T07:58:16;100343.78;;;9.21;49.88
50859;BME280;36826;47.514;19.056;2023-01-30T08:00:42;100345.97;;;9.72;48.74
50859;BME280;36826;47.514;19.056;2023-01-30T08:03:11;100339.63;;;10.59;48.52
50859;BME280;36826;47.514;19.056;2023-01-30T08:05:37;100343.63;;;11.36;46.90
50859;BME280;36826;47.514;19.056;2023-01-30T08:08:02;100337.28;;;11.57;45.45
50859;BME280;36826;47.514;19.056;2023-01-30T08:10:28;100331.16;;;12.06;44.86
50859;BME280;36826;47.514;19.056;2023-01-30T08:12:53;100318.91;;;12.61;43.67
50859;BME280;36826;47.514;19.056;2023-01-30T08:15:18;100296.84;;;12.95;42.81
50859;BME280;36826;47.514;19.056;2023-01-30T08:17:44;100286.91;;;11.90;44.20
50859;BME280;36826;47.514;19.056;2023-01-30T08:20:16;100271.56;;;11.02;44.32
50859;BME280;36826;47.514;19.056;2023-01-30T08:22:42;100267.91;;;10.41;46.14
50859;BME280;36826;47.514;19.056;2023-01-30T08:25:07;100264.75;;;9.40;47.33
50859;BME280;36826;47.514;19.056;2023-01-30T08:27:32;100263.06;;;8.50;48.87
50859;BME280;36826;47.514;19.056;2023-01-30T08:29:58;100262.78;;;8.98;48.53
50859;BME280;36826;47.514;19.056;2023-01-30T08:32:23;100273.94;;;8.92;48.87
50859;BME280;36826;47.514;19.056;2023-01-30T08:34:48;100272.00;;;9.49;48.28
50859;BME280;36826;47.514;19.056;2023-01-30T08:37:14;100266.88;;;10.11;47.61
50859;BME280;36826;47.514;19.056;2023-01-30T08:39:39;100262.47;;;10.53;48.32
50859;BME280;36826;47.514;19.056;2023-01-30T08:42:04;100257.25;;;10.51;47.37
50859;BME280;36826;47.514;19.056;2023-01-30T08:44:30;100258.34;;;10.70;47.10
50859;BME280;36826;47.514;19.056;2023-01-30T08:46:55;100259.88;;;10.72;46.92
50859;BME280;36826;47.514;19.056;2023-01-30T08:49:20;100253.72;;;10.82;47.41
50859;BME280;36826;47.514;19.056;2023-01-30T08:51:45;100262.25;;;11.07;47.03
50859;BME280;36826;47.514;19.056;2023-01-30T08:54:11;100251.41;;;11.08;46.15
50859;BME280;36826;47.514;19.056;2023-01-30T08:56:36;100249.94;;;10.94;46.70
50859;BME280;36826;47.514;19.056;2023-01-30T08:59:02;100264.38;;;10.20;46.91
50859;BME280;36826;47.514;19.056;2023-01-30T09:01:27;100255.88;;;10.57;47.85
50859;BME280;36826;47.514;19.056;2023-01-30T09:03:52;100270.50;;;10.53;47.66
50859;BME280;36826;47.514;19.056;2023-01-30T09:06:18;100259.94;;;10.92;46.73
50859;BME280;36826;47.514;19.056;2023-01-30T09:08:43;100252.94;;;10.60;47.23
50859;BME280;36826;47.514;19.056;2023-01-30T09:11:09;100255.13;;;10.45;46.88
50859;BME280;36826;47.514;19.056;2023-01-30T09:13:34;100251.00;;;10.41;48.02
50859;BME280;36826;47.514;19.056;2023-01-30T09:16:00;100253.34;;;10.65;47.87
50859;BME280;36826;47.514;19.056;2023-01-30T09:18:25;100257.06;;;10.22;47.74
50859;BME280;36826;47.514;19.056;2023-01-30T09:20:51;100239.78;;;10.26;48.08
50859;BME280;36826;47.514;19.056;2023-01-30T09:23:16;100245.13;;;10.05;48.30
50859;BME280;36826;47.514;19.056;2023-01-30T09:25:44;100234.75;;;10.64;47.85
50859;BME280;36826;47.514;19.056;2023-01-30T09:28:10;100240.03;;;9.80;48.53
50859;BME280;36826;47.514;19.056;2023-01-30T09:30:36;100242.66;;;10.13;48.54
50859;BME280;36826;47.514;19.056;2023-01-30T09:33:01;100230.91;;;10.04;48.20
50859;BME280;36826;47.514;19.056;2023-01-30T09:35:27;100220.44;;;10.43;47.57
50859;BME280;36826;47.514;19.056;2023-01-30T09:37:52;100223.38;;;9.56;48.85
50859;BME280;36826;47.514;19.056;2023-01-30T09:40:22;100222.53;;;9.11;49.52
50859;BME280;36826;47.514;19.056;2023-01-30T09:47:47;100205.78;;;9.20;49.92
50859;BME280;36826;47.514;19.056;2023-01-30T09:50:22;100205.38;;;8.58;50.19
50859;BME280;36826;47.514;19.056;2023-01-30T09:55:17;100195.44;;;8.38;51.30
50859;BME280;36826;47.514;19.056;2023-01-30T09:57:44;100201.50;;;8.74;51.01
50859;BME280;36826;47.514;19.056;2023-01-30T10:00:11;100183.53;;;8.42;51.35
50859;BME280;36826;47.514;19.056;2023-01-30T10:05:20;100178.44;;;8.39;51.31
50859;BME280;36826;47.514;19.056;2023-01-30T10:12:57;100164.13;;;8.28;52.20
50859;BME280;36826;47.514;19.056;2023-01-30T10:23:18;100142.06;;;10.20;48.33
50859;BME280;36826;47.514;19.056;2023-01-30T10:28:21;100122.84;;;10.77;47.49
50859;BME280;36826;47.514;19.056;2023-01-30T10:30:50;100121.72;;;10.89;47.12
50859;BME280;36826;47.514;19.056;2023-01-30T10:34:17;100118.34;;;10.97;47.51
50859;BME280;36826;47.514;19.056;2023-01-30T10:36:13;100110.16;;;9.97;48.37
50859;BME280;36826;47.514;19.056;2023-01-30T10:38:47;100102.22;;;9.86;49.51
50859;BME280;36826;47.514;19.056;2023-01-30T10:44:08;100090.53;;;9.35;49.39
50859;BME280;36826;47.514;19.056;2023-01-30T10:49:08;100071.88;;;8.70;51.47
50859;BME280;36826;47.514;19.056;2023-01-30T10:54:21;100053.19;;;8.58;51.39
50859;BME280;36826;47.514;19.056;2023-01-30T10:57:00;100049.88;;;8.99;50.82
50859;BME280;36826;47.514;19.056;2023-01-30T11:05:20;100032.75;;;8.80;51.28
50859;BME280;36826;47.514;19.056;2023-01-30T11:07:47;100011.97;;;9.05;51.27
50859;BME280;36826;47.514;19.056;2023-01-30T11:10:14;100016.09;;;8.55;52.24
50859;BME280;36826;47.514;19.056;2023-01-30T11:12:40;100009.75;;;9.10;51.11
50859;BME280;36826;47.514;19.056;2023-01-30T11:15:05;100002.00;;;9.59;50.83
50859;BME280;36826;47.514;19.056;2023-01-30T11:20:00;100007.66;;;9.97;50.06
50859;BME280;36826;47.514;19.056;2023-01-30T11:22:26;99990.28;;;10.42;48.71
50859;BME280;36826;47.514;19.056;2023-01-30T11:25:14;100001.81;;;10.33;48.75
50859;BME280;36826;47.514;19.056;2023-01-30T11:27:38;99984.97;;;10.01;48.35
50859;BME280;36826;47.514;19.056;2023-01-30T11:32:31;99977.63;;;9.21;50.07
50859;BME280;36826;47.514;19.056;2023-01-30T11:35:01;99976.53;;;9.55;50.35
50859;BME280;36826;47.514;19.056;2023-01-30T11:37:31;99973.34;;;9.09;50.33
50859;BME280;36826;47.514;19.056;2023-01-30T11:39:57;99963.47;;;9.72;50.45
50859;BME280;36826;47.514;19.056;2023-01-30T11:42:24;99954.53;;;9.51;50.02
50859;BME280;36826;47.514;19.056;2023-01-30T11:44:54;99957.34;;;8.98;51.40
50859;BME280;36826;47.514;19.056;2023-01-30T11:47:21;99934.84;;;9.52;50.60
50859;BME280;36826;47.514;19.056;2023-01-30T11:49:48;99941.97;;;9.83;50.14
50859;BME280;36826;47.514;19.056;2023-01-30T11:52:18;99948.38;;;10.21;49.08
50859;BME280;36826;47.514;19.056;2023-01-30T11:54:46;99937.81;;;10.20;49.71
50859;BME280;36826;47.514;19.056;2023-01-30T11:57:13;99950.75;;;9.95;49.35
50859;BME280;36826;47.514;19.056;2023-01-30T11:59:43;99934.81;;;9.83;49.66
50859;BME280;36826;47.514;19.056;2023-01-30T12:04:41;99934.13;;;10.01;49.30
50859;BME280;36826;47.514;19.056;2023-01-30T12:07:12;99929.06;;;9.98;50.47
50859;BME280;36826;47.514;19.056;2023-01-30T12:09:40;99921.00;;;9.38;50.38
50859;BME280;36826;47.514;19.056;2023-01-30T12:14:49;99922.09;;;9.25;51.33
50859;BME280;36826;47.514;19.056;2023-01-30T12:17:21;99931.25;;;9.01;51.94
50859;BME280;36826;47.514;19.056;2023-01-30T12:25:13;99908.22;;;9.10;51.69
50859;BME280;36826;47.514;19.056;2023-01-30T12:27:48;99880.19;;;8.95;52.25
50859;BME280;36826;47.514;19.056;2023-01-30T12:32:59;99866.38;;;8.26;54.22
50859;BME280;36826;47.514;19.056;2023-01-30T12:39:23;99870.66;;;8.81;54.37
50859;BME280;36826;47.514;19.056;2023-01-30T12:44:08;99856.41;;;9.23;54.53
50859;BME280;36826;47.514;19.056;2023-01-30T12:49:35;99862.53;;;9.64;53.71
50859;BME280;36826;47.514;19.056;2023-01-30T12:54:50;99850.84;;;9.55;53.80
50859;BME280;36826;47.514;19.056;2023-01-30T12:57:39;99864.22;;;9.14;54.45
50859;BME280;36826;47.514;19.056;2023-01-30T13:07:56;99833.69;;;8.76;55.09
50859;BME280;36826;47.514;19.056;2023-01-30T13:10:32;99834.28;;;9.71;53.97
50859;BME280;36826;47.514;19.056;2023-01-30T13:15:55;99812.53;;;9.35;54.19
50859;BME280;36826;47.514;19.056;2023-01-30T13:18:17;99800.81;;;9.16;54.54
50859;BME280;36826;47.514;19.056;2023-01-30T13:28:24;99791.06;;;9.05;54.50
50859;BME280;36826;47.514;19.056;2023-01-30T13:30:50;99790.72;;;9.49;53.92
50859;BME280;36826;47.514;19.056;2023-01-30T13:33:27;99797.31;;;9.16;54.47
50859;BME280;36826;47.514;19.056;2023-01-30T13:36:41;99800.88;;;9.46;53.85
50859;BME280;36826;47.514;19.056;2023-01-30T13:38:42;99804.53;;;9.55;53.15
50859;BME280;36826;47.514;19.056;2023-01-30T13:41:12;99795.00;;;9.11;53.69
50859;BME280;36826;47.514;19.056;2023-01-30T13:43:47;99804.28;;;9.58;52.98
50859;BME280;36826;47.514;19.056;2023-01-30T13:46:16;99806.25;;;9.75;52.48
50859;BME280;36826;47.514;19.056;2023-01-30T13:51:35;99802.84;;;10.42;51.52
50859;BME280;36826;47.514;19.056;2023-01-30T13:56:49;99794.94;;;10.40;50.83
50859;BME280;36826;47.514;19.056;2023-01-30T14:04:48;99782.44;;;10.79;50.03
50859;BME280;36826;47.514;19.056;2023-01-30T14:09:39;99780.81;;;10.68;49.42
50859;BME280;36826;47.514;19.056;2023-01-30T14:12:05;99776.75;;;10.92;49.72
50859;BME280;36826;47.514;19.056;2023-01-30T14:14:32;99783.13;;;10.81;49.84
50859;BME280;36826;47.514;19.056;2023-01-30T14:17:15;99776.56;;;10.65;49.42
50859;BME280;36826;47.514;19.056;2023-01-30T14:19:45;99782.84;;;10.36;50.16
50859;BME280;36826;47.514;19.056;2023-01-30T14:25:28;99782.13;;;10.82;49.71
50859;BME280;36826;47.514;19.056;2023-01-30T14:27:31;99785.25;;;10.77;49.78
50859;BME280;36826;47.514;19.056;2023-01-30T14:29:57;99790.69;;;10.95;49.87
50859;BME280;36826;47.514;19.056;2023-01-30T14:34:48;99802.63;;;10.73;49.78
50859;BME280;36826;47.514;19.056;2023-01-30T14:37:27;99800.44;;;10.86;50.39
50859;BME280;36826;47.514;19.056;2023-01-30T14:39:56;99798.81;;;10.76;50.88
50859;BME280;36826;47.514;19.056;2023-01-30T14:42:23;99798.13;;;10.73;51.13
50859;BME280;36826;47.514;19.056;2023-01-30T14:47:23;99802.88;;;10.80;52.81
50859;BME280;36826;47.514;19.056;2023-01-30T14:49:49;99800.28;;;10.60;53.67
50859;BME280;36826;47.514;19.056;2023-01-30T14:52:35;99801.50;;;10.76;53.48
50859;BME280;36826;47.514;19.056;2023-01-30T14:55:02;99793.94;;;10.51;54.27
50859;BME280;36826;47.514;19.056;2023-01-30T14:57:28;99791.84;;;10.25;55.38
50859;BME280;36826;47.514;19.056;2023-01-30T14:59:59;99795.22;;;10.37;55.31
50859;BME280;36826;47.514;19.056;2023-01-30T15:02:26;99794.41;;;10.17;54.99